sensor_id;sensor_type;location;lat;lon;timestamp;temperature;humidity
24162;DHT22;12318;51.262;7.066;2023-07-29T02:23:04;20.20;99.90
24162;DHT22;12318;51.262;7.066;2023-07-29T02:25:36;20.60;99.90
24162;DHT22;12318;51.262;7.066;2023-07-29T02:28:02;20.30;99.90
24162;DHT22;12318;51.262;7.066;2023-07-29T02:30:29;20.30;99.90
24162;DHT22;12318;51.262;7.066;2023-07-29T02:32:54;20.30;99.90
24162;DHT22;12318;51.262;7.066;2023-07-29T02:35:20;20.30;99.90
24162;DHT22;12318;51.262;7.066;2023-07-29T02:37:52;20.40;99.90
24162;DHT22;12318;51.262;7.066;2023-07-29T02:40:18;20.30;99.90
24162;DHT22;12318;51.262;7.066;2023-07-29T02:42:46;20.30;99.90
24162;DHT22;12318;51.262;7.066;2023-07-29T02:45:12;20.40;99.90
24162;DHT22;12318;51.262;7.066;2023-07-29T02:47:38;20.40;99.90
24162;DHT22;12318;51.262;7.066;2023-07-29T02:50:04;20.40;99.90
24162;DHT22;12318;51.262;7.066;2023-07-29T02:52:30;20.40;99.90
24162;DHT22;12318;51.262;7.066;2023-07-29T02:54:55;20.40;99.90
24162;DHT22;12318;51.262;7.066;2023-07-29T02:57:21;20.40;99.90
24162;DHT22;12318;51.262;7.066;2023-07-29T02:59:47;20.40;99.90
24162;DHT22;12318;51.262;7.066;2023-07-29T03:02:13;20.30;99.90
24162;DHT22;12318;51.262;7.066;2023-07-29T03:04:41;20.40;99.90
24162;DHT22;12318;51.262;7.066;2023-07-29T03:07:07;20.50;99.90
24162;DHT22;12318;51.262;7.066;2023-07-29T03:09:33;20.40;99.90
24162;DHT22;12318;51.262;7.066;2023-07-29T03:11:58;20.40;99.90
24162;DHT22;12318;51.262;7.066;2023-07-29T03:14:24;20.40;99.90
24162;DHT22;12318;51.262;7.066;2023-07-29T03:16:51;20.40;99.90
24162;DHT22;12318;51.262;7.066;2023-07-29T03:19:17;20.40;99.90
24162;DHT22;12318;51.262;7.066;2023-07-29T03:21:43;20.50;99.90
24162;DHT22;12318;51.262;7.066;2023-07-29T03:24:09;20.50;99.90
24162;DHT22;12318;51.262;7.066;2023-07-29T03:26:35;20.50;99.90
24162;DHT22;12318;51.262;7.066;2023-07-29T03:29:00;20.50;99.90
24162;DHT22;12318;51.262;7.066;2023-07-29T03:31:26;20.60;99.90
24162;DHT22;12318;51.262;7.066;2023-07-29T03:33:52;20.70;99.90
24162;DHT22;12318;51.262;7.066;2023-07-29T03:36:17;20.60;99.90
24162;DHT22;12318;51.262;7.066;2023-07-29T03:41:23;20.10;99.90
24162;DHT22;12318;51.262;7.066;2023-07-29T03:43:49;20.70;99.90
24162;DHT22;12318;51.262;7.066;2023-07-29T03:46:15;20.60;99.90
24162;DHT22;12318;51.262;7.066;2023-07-29T03:48:47;20.70;99.90
24162;DHT22;12318;51.262;7.066;2023-07-29T03:51:13;20.70;99.90
24162;DHT22;12318;51.262;7.066;2023-07-29T03:53:39;20.60;99.90
24162;DHT22;12318;51.262;7.066;2023-07-29T03:56:04;20.60;99.90
24162;DHT22;12318;51.262;7.066;2023-07-29T03:58:31;20.60;99.90
24162;DHT22;12318;51.262;7.066;2023-07-29T04:00:56;20.60;99.90
24162;DHT22;12318;51.262;7.066;2023-07-29T04:03:22;20.70;99.90
24162;DHT22;12318;51.262;7.066;2023-07-29T04:05:48;20.70;99.90
24162;DHT22;12318;51.262;7.066;2023-07-29T04:08:14;20.70;99.90
24162;DHT22;12318;51.262;7.066;2023-07-29T04:10:40;20.50;99.90
24162;DHT22;12318;51.262;7.066;2023-07-29T04:13:05;20.50;99.90
24162;DHT22;12318;51.262;7.066;2023-07-29T04:15:31;20.60;99.90
24162;DHT22;12318;51.262;7.066;2023-07-29T04:18:00;20.60;99.90
24162;DHT22;12318;51.262;7.066;2023-07-29T04:20:26;20.70;99.90
24162;DHT22;12318;51.262;7.066;2023-07-29T04:22:51;20.70;99.90
24162;DHT22;12318;51.262;7.066;2023-07-29T04:25:17;20.70;99.90
24162;DHT22;12318;51.262;7.066;2023-07-29T04:27:43;20.70;99.90
24162;DHT22;12318;51.262;7.066;2023-07-29T04:32:35;20.90;99.90
24162;DHT22;12318;51.262;7.066;2023-07-29T04:35:01;20.70;99.90
24162;DHT22;12318;51.262;7.066;2023-07-29T04:37:27;21.00;99.90
24162;DHT22;12318;51.262;7.066;2023-07-29T04:39:53;20.80;99.90
24162;DHT22;12318;51.262;7.066;2023-07-29T04:42:18;20.70;99.90
24162;DHT22;12318;51.262;7.066;2023-07-29T04:44:44;20.80;99.90
24162;DHT22;12318;51.262;7.066;2023-07-29T04:47:11;20.70;99.90
24162;DHT22;12318;51.262;7.066;2023-07-29T04:49:37;20.60;99.90
24162;DHT22;12318;51.262;7.066;2023-07-29T04:52:02;20.50;99.90
24162;DHT22;12318;51.262;7.066;2023-07-29T04:56:55;20.40;99.90
24162;DHT22;12318;51.262;7.066;2023-07-29T04:59:20;20.30;99.90
24162;DHT22;12318;51.262;7.066;2023-07-29T05:01:46;20.10;99.90
24162;DHT22;12318;51.262;7.066;2023-07-29T05:04:12;20.10;99.90
24162;DHT22;12318;51.262;7.066;2023-07-29T05:06:39;20.10;99.90
24162;DHT22;12318;51.262;7.066;2023-07-29T05:09:15;20.10;99.90
24162;DHT22;12318;51.262;7.066;2023-07-29T05:11:42;19.90;99.90
24162;DHT22;12318;51.262;7.066;2023-07-29T05:14:09;19.90;99.90
24162;DHT22;12318;51.262;7.066;2023-07-29T05:16:35;19.90;99.90
24162;DHT22;12318;51.262;7.066;2023-07-29T05:19:01;20.00;99.90
24162;DHT22;12318;51.262;7.066;2023-07-29T05:21:26;20.10;99.90
24162;DHT22;12318;51.262;7.066;2023-07-29T05:23:52;20.10;99.90
24162;DHT22;12318;51.262;7.066;2023-07-29T05:26:18;20.10;99.90
24162;DHT22;12318;51.262;7.066;2023-07-29T05:28:44;20.00;99.90
24162;DHT22;12318;51.262;7.066;2023-07-29T05:31:09;20.20;99.90
24162;DHT22;12318;51.262;7.066;2023-07-29T05:33:35;20.20;99.90
24162;DHT22;12318;51.262;7.066;2023-07-29T05:36:02;20.00;99.90
24162;DHT22;12318;51.262;7.066;2023-07-29T05:38:28;20.30;99.90
24162;DHT22;12318;51.262;7.066;2023-07-29T05:40:53;20.00;99.90
24162;DHT22;12318;51.262;7.066;2023-07-29T05:43:19;20.10;99.90
24162;DHT22;12318;51.262;7.066;2023-07-29T05:45:45;20.10;99.90
24162;DHT22;12318;51.262;7.066;2023-07-29T05:48:11;20.10;99.90
24162;DHT22;12318;51.262;7.066;2023-07-29T05:50:36;20.00;99.90
24162;DHT22;12318;51.262;7.066;2023-07-29T05:53:02;20.20;99.90
24162;DHT22;12318;51.262;7.066;2023-07-29T05:55:28;20.00;99.90
24162;DHT22;12318;51.262;7.066;2023-07-29T05:57:53;20.10;99.90
24162;DHT22;12318;51.262;7.066;2023-07-29T06:05:12;20.10;99.90
24162;DHT22;12318;51.262;7.066;2023-07-29T06:07:38;20.00;99.90
24162;DHT22;12318;51.262;7.066;2023-07-29T06:10:04;20.10;99.90
24162;DHT22;12318;51.262;7.066;2023-07-29T06:12:30;20.10;99.90
24162;DHT22;12318;51.262;7.066;2023-07-29T06:14:55;20.10;99.90
24162;DHT22;12318;51.262;7.066;2023-07-29T06:19:47;19.80;99.90
24162;DHT22;12318;51.262;7.066;2023-07-29T06:22:13;19.90;99.90
24162;DHT22;12318;51.262;7.066;2023-07-29T06:27:04;19.90;99.90
24162;DHT22;12318;51.262;7.066;2023-07-29T06:34:22;19.80;99.90
24162;DHT22;12318;51.262;7.066;2023-07-29T06:36:48;19.70;99.90
24162;DHT22;12318;51.262;7.066;2023-07-29T06:39:14;19.60;99.90
24162;DHT22;12318;51.262;7.066;2023-07-29T06:41:40;19.70;99.90
24162;DHT22;12318;51.262;7.066;2023-07-29T08:09:22;20.00;99.90
24162;DHT22;12318;51.262;7.066;2023-07-29T08:11:47;19.80;99.90
24162;DHT22;12318;51.262;7.066;2023-07-29T08:31:17;20.00;99.90
24162;DHT22;12318;51.262;7.066;2023-07-29T08:33:42;20.20;99.90
24162;DHT22;12318;51.262;7.066;2023-07-29T08:36:08;20.20;99.90
